createdAt,value
2023-04-21T00:00:23.852Z,1077.00
2023-04-21T00:01:23.880Z,1064.00
2023-04-21T00:02:23.978Z,1078.00
2023-04-21T00:03:24.284Z,1067.00
2023-04-21T00:04:24.140Z,1069.00
2023-04-21T00:05:24.185Z,1067.00
2023-04-21T00:06:24.032Z,1071.00
2023-04-21T00:07:24.068Z,1080.00
2023-04-21T00:08:24.100Z,1072.00
2023-04-21T00:09:24.148Z,1052.00
2023-04-21T00:10:24.166Z,1063.00
2023-04-21T00:11:24.196Z,1061.00
2023-04-21T00:12:24.223Z,1055.00
2023-04-21T00:13:24.263Z,1056.00
2023-04-21T00:14:24.285Z,1054.00
2023-04-21T00:15:24.310Z,1049.00
2023-04-21T00:16:24.433Z,1050.00
2023-04-21T00:17:24.395Z,1057.00
2023-04-21T00:18:24.393Z,1057.00
2023-04-21T00:19:24.415Z,1034.00
2023-04-21T00:20:24.518Z,1054.00
2023-04-21T00:21:24.473Z,1051.00
2023-04-21T00:22:24.510Z,1056.00
2023-04-21T00:23:24.540Z,1035.00
2023-04-21T00:24:24.573Z,1043.00
2023-04-21T00:25:24.594Z,1053.00
2023-04-21T00:26:24.636Z,1037.00
2023-04-21T00:27:24.645Z,1038.00
2023-04-21T00:28:24.688Z,1040.00
2023-04-21T00:29:24.714Z,1023.00
2023-04-21T00:30:24.755Z,1035.00
2023-04-21T00:31:24.798Z,1040.00
2023-04-21T00:32:24.826Z,1031.00
2023-04-21T00:33:24.848Z,1045.00
2023-04-21T00:34:24.871Z,1041.00
2023-04-21T00:35:24.917Z,1026.00
2023-04-21T00:36:24.981Z,1036.00
2023-04-21T00:37:24.976Z,1028.00
2023-04-21T00:38:24.994Z,1036.00
2023-04-21T00:39:25.024Z,1020.00
2023-04-21T00:40:25.055Z,1028.00
2023-04-21T00:41:25.101Z,1026.00
2023-04-21T00:42:25.126Z,1024.00
2023-04-21T00:43:25.151Z,1026.00
2023-04-21T00:44:25.193Z,1007.00
2023-04-21T00:45:25.226Z,1024.00
2023-04-21T00:46:25.377Z,1011.00
2023-04-21T00:47:25.342Z,1025.00
2023-04-21T00:48:25.337Z,1013.00
2023-04-21T00:49:25.375Z,1021.00
2023-04-21T00:50:25.411Z,1016.00
2023-04-21T00:51:25.514Z,1001.00
2023-04-21T00:52:25.493Z,1007.00
2023-04-21T00:53:25.525Z,1010.00
2023-04-21T00:54:25.556Z,1011.00
2023-04-21T00:55:25.585Z,1015.00
2023-04-21T00:56:25.628Z,1002.00
2023-04-21T00:57:25.659Z,1000.00
2023-04-21T00:58:25.691Z,1012.00
2023-04-21T00:59:25.732Z,1007.00
2023-04-21T01:00:25.761Z,1008.00
2023-04-21T01:01:25.921Z,1006.00
2023-04-21T01:02:25.924Z,996.00
2023-04-21T01:03:26.032Z,1004.00
2023-04-21T01:04:25.977Z,994.00
2023-04-21T01:05:25.931Z,996.00
2023-04-21T01:06:25.974Z,992.00
2023-04-21T01:07:25.998Z,996.00
2023-04-21T01:08:26.039Z,1007.00
2023-04-21T01:09:26.073Z,985.00
2023-04-21T01:10:26.090Z,994.00
2023-04-21T01:11:26.147Z,997.00
2023-04-21T01:12:26.162Z,991.00
2023-04-21T01:13:26.206Z,991.00
2023-04-21T01:14:26.235Z,978.00
2023-04-21T01:15:26.274Z,984.00
2023-04-21T01:16:26.370Z,988.00
2023-04-21T01:17:26.397Z,991.00
2023-04-21T01:18:26.389Z,983.00
2023-04-21T01:19:26.421Z,984.00
2023-04-21T01:20:26.468Z,985.00
2023-04-21T01:21:26.509Z,982.00
2023-04-21T01:22:26.547Z,974.00
2023-04-21T01:23:26.569Z,980.00
2023-04-21T01:24:26.611Z,973.00
2023-04-21T01:25:26.649Z,978.00
2023-04-21T01:26:26.693Z,973.00
2023-04-21T01:27:26.726Z,966.00
2023-04-21T01:28:26.761Z,977.00
2023-04-21T01:29:26.797Z,965.00
2023-04-21T01:30:26.842Z,970.00
2023-04-21T01:31:26.909Z,967.00
2023-04-21T01:32:27.055Z,977.00
2023-04-21T01:33:26.967Z,977.00
2023-04-21T01:34:27.008Z,971.00
2023-04-21T01:35:27.054Z,963.00
2023-04-21T01:36:27.090Z,964.00
2023-04-21T01:37:27.125Z,961.00
2023-04-21T01:38:27.171Z,961.00
2023-04-21T01:39:27.203Z,963.00
2023-04-21T01:40:27.255Z,948.00
2023-04-21T01:41:27.304Z,955.00
2023-04-21T01:42:27.342Z,951.00
2023-04-21T01:43:27.396Z,960.00
2023-04-21T01:44:27.443Z,969.00
2023-04-21T01:45:27.466Z,954.00
2023-04-21T01:46:27.661Z,955.00
2023-04-21T01:47:27.544Z,944.00
2023-04-21T01:48:27.585Z,954.00
2023-04-21T01:49:27.621Z,948.00
2023-04-21T01:50:27.683Z,961.00
2023-04-21T01:51:27.707Z,947.00
2023-04-21T01:52:27.746Z,947.00
2023-04-21T01:53:27.804Z,951.00
2023-04-21T01:54:27.830Z,938.00
2023-04-21T01:55:27.873Z,941.00
2023-04-21T01:56:27.946Z,943.00
2023-04-21T01:57:27.954Z,939.00
2023-04-21T01:58:27.987Z,938.00
2023-04-21T01:59:28.017Z,939.00
2023-04-21T02:00:28.062Z,947.00
2023-04-21T02:01:28.138Z,946.00
2023-04-21T02:02:28.257Z,945.00
2023-04-21T02:03:28.456Z,937.00
2023-04-21T02:04:28.283Z,944.00
2023-04-21T02:05:28.239Z,932.00
2023-04-21T02:06:28.288Z,936.00
2023-04-21T02:07:28.319Z,934.00
2023-04-21T02:08:28.358Z,934.00
2023-04-21T02:09:28.397Z,928.00
2023-04-21T02:10:28.441Z,926.00
2023-04-21T02:11:28.471Z,927.00
2023-04-21T02:12:28.492Z,921.00
2023-04-21T02:13:28.535Z,926.00
2023-04-21T02:14:28.577Z,921.00
2023-04-21T02:15:28.651Z,922.00
2023-04-21T02:16:28.692Z,908.00
2023-04-21T02:17:28.718Z,914.00
2023-04-21T02:18:28.699Z,911.00
2023-04-21T02:19:28.740Z,901.00
2023-04-21T02:20:28.787Z,920.00
2023-04-21T02:21:28.824Z,920.00
2023-04-21T02:22:28.855Z,911.00
2023-04-21T02:23:28.891Z,914.00
2023-04-21T02:24:28.927Z,909.00
2023-04-21T02:25:29.536Z,903.00
2023-04-21T02:26:29.012Z,914.00
2023-04-21T02:27:29.042Z,897.00
2023-04-21T02:28:29.080Z,899.00
2023-04-21T02:29:29.116Z,910.00
2023-04-21T02:30:29.145Z,901.00
2023-04-21T02:31:29.217Z,897.00
2023-04-21T02:32:29.310Z,894.00
2023-04-21T02:33:29.291Z,900.00
2023-04-21T02:34:29.301Z,890.00
2023-04-21T02:35:29.349Z,891.00
2023-04-21T02:36:29.397Z,899.00
2023-04-21T02:37:29.436Z,888.00
2023-04-21T02:38:29.472Z,883.00
2023-04-21T02:39:29.508Z,891.00
2023-04-21T02:40:29.557Z,890.00
2023-04-21T02:41:29.598Z,888.00
2023-04-21T02:42:29.624Z,880.00
2023-04-21T02:43:29.665Z,872.00
2023-04-21T02:44:29.717Z,878.00
2023-04-21T02:45:29.747Z,887.00
2023-04-21T02:46:29.830Z,884.00
2023-04-21T02:47:29.836Z,880.00
2023-04-21T02:48:29.869Z,886.00
2023-04-21T02:49:29.903Z,882.00
2023-04-21T02:50:29.948Z,876.00
2023-04-21T02:51:29.997Z,876.00
2023-04-21T02:52:30.023Z,882.00
2023-04-21T02:53:30.064Z,868.00
2023-04-21T02:54:30.095Z,871.00
2023-04-21T02:55:30.135Z,868.00
2023-04-21T02:56:30.164Z,874.00
2023-04-21T02:57:30.208Z,868.00
2023-04-21T02:58:30.248Z,859.00
2023-04-21T02:59:30.289Z,867.00
2023-04-21T03:00:30.355Z,860.00
2023-04-21T03:01:30.374Z,847.00
2023-04-21T03:02:30.536Z,848.00
2023-04-21T03:03:30.650Z,844.00
2023-04-21T03:04:30.510Z,855.00
2023-04-21T03:05:30.508Z,846.00
2023-04-21T03:06:30.557Z,858.00
2023-04-21T03:07:30.586Z,845.00
2023-04-21T03:08:30.628Z,834.00
2023-04-21T03:09:30.668Z,839.00
2023-04-21T03:10:30.689Z,825.00
2023-04-21T03:11:30.740Z,826.00
2023-04-21T03:12:30.764Z,825.00
2023-04-21T03:13:30.809Z,818.00
2023-04-21T03:14:30.843Z,819.00
2023-04-21T03:15:30.868Z,809.00
2023-04-21T03:16:30.921Z,809.00
2023-04-21T03:17:32.929Z,804.00
2023-04-21T03:18:30.965Z,813.00
2023-04-21T03:19:30.997Z,813.00
2023-04-21T03:20:31.028Z,824.00
2023-04-21T03:21:31.081Z,798.00
2023-04-21T03:22:31.114Z,802.00
2023-04-21T03:23:31.133Z,806.00
2023-04-21T03:24:31.187Z,796.00
2023-04-21T03:25:31.197Z,814.00
2023-04-21T03:26:31.238Z,810.00
2023-04-21T03:27:31.262Z,800.00
2023-04-21T03:28:31.297Z,802.00
2023-04-21T03:29:31.328Z,789.00
2023-04-21T03:30:31.363Z,795.00
2023-04-21T03:31:31.414Z,790.00
2023-04-21T03:32:31.425Z,802.00
2023-04-21T03:33:31.449Z,776.00
2023-04-21T03:34:31.481Z,796.00
2023-04-21T03:35:31.511Z,800.00
2023-04-21T03:36:31.554Z,789.00
2023-04-21T03:37:31.586Z,779.00
2023-04-21T03:38:31.611Z,795.00
2023-04-21T03:39:31.670Z,787.00
2023-04-21T03:40:31.679Z,762.00
2023-04-21T03:41:31.725Z,772.00
2023-04-21T03:42:31.746Z,763.00
2023-04-21T03:43:31.772Z,761.00
2023-04-21T03:44:31.818Z,765.00
2023-04-21T03:45:31.870Z,761.00
2023-04-21T03:46:31.952Z,770.00
2023-04-21T03:47:31.986Z,758.00
2023-04-21T03:48:31.941Z,751.00
2023-04-21T03:49:31.961Z,766.00
2023-04-21T03:50:31.996Z,740.00
2023-04-21T03:51:32.026Z,764.00
2023-04-21T03:52:32.051Z,743.00
2023-04-21T03:53:32.090Z,731.00
2023-04-21T03:54:32.130Z,745.00
2023-04-21T03:55:32.160Z,732.00
2023-04-21T03:56:32.186Z,754.00
2023-04-21T03:57:32.226Z,749.00
2023-04-21T03:58:32.233Z,740.00
2023-04-21T03:59:32.272Z,743.00
2023-04-21T04:00:32.300Z,731.00
2023-04-21T04:01:32.335Z,730.00
2023-04-21T04:02:32.485Z,717.00
2023-04-21T04:03:32.470Z,731.00
2023-04-21T04:04:32.675Z,719.00
2023-04-21T04:05:32.530Z,722.00
2023-04-21T04:06:32.520Z,733.00
2023-04-21T04:07:32.524Z,731.00
2023-04-21T04:08:32.549Z,714.00
2023-04-21T04:09:32.584Z,709.00
2023-04-21T04:10:32.602Z,714.00
2023-04-21T04:11:32.631Z,708.00
2023-04-21T04:12:32.668Z,704.00
2023-04-21T04:13:32.690Z,714.00
2023-04-21T04:14:32.715Z,701.00
2023-04-21T04:15:32.851Z,709.00
2023-04-21T04:16:32.816Z,710.00
2023-04-21T04:17:32.821Z,714.00
2023-04-21T04:18:32.822Z,700.00
2023-04-21T04:19:32.839Z,707.00
2023-04-21T04:20:32.863Z,698.00
2023-04-21T04:21:32.892Z,699.00
2023-04-21T04:22:32.919Z,709.00
2023-04-21T04:23:32.938Z,694.00
2023-04-21T04:24:32.961Z,688.00
2023-04-21T04:25:32.981Z,694.00
2023-04-21T04:26:33.011Z,697.00
2023-04-21T04:27:33.030Z,697.00
2023-04-21T04:28:33.051Z,693.00
2023-04-21T04:29:33.069Z,678.00
2023-04-21T04:30:33.099Z,679.00
2023-04-21T04:31:33.136Z,677.00
2023-04-21T04:32:33.184Z,674.00
2023-04-21T04:33:33.183Z,679.00
2023-04-21T04:34:33.213Z,667.00
2023-04-21T04:35:33.269Z,671.00
2023-04-21T04:36:33.253Z,665.00
2023-04-21T04:37:33.273Z,664.00
2023-04-21T04:38:33.305Z,679.00
2023-04-21T04:39:33.335Z,680.00
2023-04-21T04:40:33.351Z,666.00
2023-04-21T04:41:33.391Z,671.00
2023-04-21T04:42:33.411Z,659.00
2023-04-21T04:43:33.457Z,670.00
2023-04-21T04:44:33.456Z,665.00
2023-04-21T04:45:33.479Z,661.00
2023-04-21T04:46:33.598Z,667.00
2023-04-21T04:47:33.580Z,659.00
2023-04-21T04:48:33.555Z,659.00
2023-04-21T04:49:33.580Z,659.00
2023-04-21T04:50:33.603Z,663.00
2023-04-21T04:51:33.672Z,655.00
2023-04-21T04:52:33.645Z,661.00
2023-04-21T04:53:33.670Z,659.00
2023-04-21T04:54:33.692Z,658.00
2023-04-21T04:55:33.708Z,658.00
2023-04-21T04:56:33.735Z,662.00
2023-04-21T04:57:33.758Z,655.00
2023-04-21T04:58:33.780Z,648.00
2023-04-21T04:59:33.804Z,654.00
2023-04-21T05:00:33.829Z,657.00
2023-04-21T05:01:33.904Z,653.00
2023-04-21T05:02:34.062Z,657.00
2023-04-21T05:03:34.027Z,654.00
2023-04-21T05:04:34.049Z,648.00
2023-04-21T05:05:33.957Z,653.00
2023-04-21T05:06:33.983Z,652.00
2023-04-21T05:07:33.983Z,649.00
2023-04-21T05:08:34.013Z,646.00
2023-04-21T05:09:34.046Z,655.00
2023-04-21T05:10:34.067Z,647.00
2023-04-21T05:11:34.090Z,650.00
2023-04-21T05:12:34.102Z,647.00
2023-04-21T05:13:34.156Z,645.00
2023-04-21T05:14:34.153Z,647.00
2023-04-21T05:15:34.159Z,645.00
2023-04-21T05:16:34.207Z,645.00
2023-04-21T05:17:34.287Z,645.00
2023-04-21T05:18:34.240Z,648.00
2023-04-21T05:19:34.260Z,588.00
2023-04-21T05:20:34.275Z,554.00
2023-04-21T05:21:34.310Z,552.00
2023-04-21T05:22:34.323Z,549.00
2023-04-21T05:23:34.358Z,538.00
2023-04-21T05:24:34.391Z,514.00
2023-04-21T05:25:34.390Z,500.00
2023-04-21T05:26:34.576Z,503.00
2023-04-21T05:27:34.432Z,533.00
2023-04-21T05:28:34.458Z,546.00
2023-04-21T05:29:34.509Z,561.00
2023-04-21T05:30:34.507Z,569.00
2023-04-21T05:31:34.571Z,555.00
2023-04-21T05:32:34.649Z,559.00
2023-04-21T05:33:34.570Z,565.00
2023-04-21T05:34:34.570Z,559.00
2023-04-21T05:35:37.264Z,546.00
2023-04-21T05:36:34.589Z,545.00
2023-04-21T05:37:35.528Z,531.00
2023-04-21T05:38:34.599Z,496.00
2023-04-21T05:39:34.615Z,500.00
2023-04-21T05:40:34.616Z,519.00
2023-04-21T05:41:34.635Z,500.00
2023-04-21T05:42:34.627Z,500.00
2023-04-21T05:43:34.642Z,506.00
2023-04-21T05:44:34.644Z,506.00
2023-04-21T05:45:34.652Z,501.00
2023-04-21T05:46:34.771Z,499.00
2023-04-21T05:47:34.698Z,502.00
2023-04-21T05:48:34.693Z,504.00
2023-04-21T05:49:34.689Z,503.00
2023-04-21T05:50:34.688Z,500.00
2023-04-21T05:51:34.705Z,505.00
2023-04-21T05:52:34.715Z,500.00
2023-04-21T05:53:34.719Z,503.00
2023-04-21T05:54:34.720Z,500.00
2023-04-21T05:55:34.716Z,500.00
2023-04-21T05:56:34.729Z,501.00
2023-04-21T05:57:34.727Z,501.00
2023-04-21T05:58:34.715Z,502.00
2023-04-21T05:59:34.732Z,503.00
2023-04-21T06:00:34.726Z,501.00
2023-04-21T06:01:34.747Z,501.00
2023-04-21T06:02:34.904Z,506.00
2023-04-21T06:03:34.848Z,502.00
2023-04-21T06:04:35.008Z,501.00
2023-04-21T06:05:34.769Z,502.00
2023-04-21T06:06:34.781Z,505.00
2023-04-21T06:07:34.800Z,505.00
2023-04-21T06:08:34.861Z,505.00
2023-04-21T06:09:34.798Z,502.00
2023-04-21T06:10:34.810Z,509.00
2023-04-21T06:11:34.814Z,500.00
2023-04-21T06:12:34.824Z,504.00
2023-04-21T06:13:36.945Z,507.00
2023-04-21T06:14:34.832Z,507.00
2023-04-21T06:15:34.829Z,507.00
2023-04-21T06:16:34.869Z,499.00
2023-04-21T06:17:34.933Z,492.00
2023-04-21T06:18:34.862Z,493.00
2023-04-21T06:19:34.866Z,502.00
2023-04-21T06:20:34.902Z,505.00
2023-04-21T06:21:34.891Z,506.00
2023-04-21T06:22:34.896Z,505.00
2023-04-21T06:23:34.981Z,516.00
2023-04-21T06:24:34.897Z,529.00
2023-04-21T06:25:34.908Z,545.00
2023-04-21T06:26:34.918Z,553.00
2023-04-21T06:27:34.931Z,558.00
2023-04-21T06:28:34.927Z,562.00
2023-04-21T06:29:34.946Z,565.00
2023-04-21T06:30:34.946Z,570.00
2023-04-21T06:31:34.968Z,579.00
2023-04-21T06:32:34.998Z,590.00
2023-04-21T06:33:34.964Z,601.00
2023-04-21T06:34:34.961Z,607.00
2023-04-21T06:35:34.965Z,618.00
2023-04-21T06:36:34.977Z,622.00
2023-04-21T06:37:35.035Z,636.00
2023-04-21T06:38:34.995Z,646.00
2023-04-21T06:39:34.995Z,653.00
2023-04-21T06:40:34.988Z,658.00
2023-04-21T06:41:34.999Z,685.00
2023-04-21T06:42:35.006Z,718.00
2023-04-21T06:43:34.998Z,746.00
2023-04-21T06:44:35.004Z,767.00
2023-04-21T06:45:35.008Z,781.00
2023-04-21T06:46:35.066Z,835.00
2023-04-21T06:47:35.053Z,850.00
2023-04-21T06:48:35.017Z,887.00
2023-04-21T06:49:35.019Z,920.00
2023-04-21T06:50:35.018Z,942.00
2023-04-21T06:51:35.021Z,962.00
2023-04-21T06:52:35.031Z,986.00
2023-04-21T06:53:35.028Z,1008.00
2023-04-21T06:54:35.039Z,1029.00
2023-04-21T06:55:35.012Z,1080.00
2023-04-21T06:56:36.027Z,1081.00
2023-04-21T06:57:35.019Z,1088.00
2023-04-21T06:58:35.011Z,1115.00
2023-04-21T06:59:35.023Z,1145.00
2023-04-21T07:00:34.983Z,1200.00
2023-04-21T07:01:35.033Z,1209.00
2023-04-21T07:02:35.111Z,1228.00
2023-04-21T07:03:35.098Z,1233.00
2023-04-21T07:04:35.005Z,1269.00
2023-04-21T07:05:35.041Z,1288.00
2023-04-21T07:06:35.102Z,1305.00
2023-04-21T07:07:35.156Z,1320.00
2023-04-21T07:08:35.215Z,1340.00
2023-04-21T07:09:35.273Z,1340.00
2023-04-21T07:10:35.324Z,1369.00
2023-04-21T07:11:35.370Z,1378.00
2023-04-21T07:12:35.433Z,1405.00
2023-04-21T07:13:35.493Z,1414.00
2023-04-21T07:14:35.526Z,1433.00
2023-04-21T07:15:35.582Z,1445.00
2023-04-21T07:16:35.729Z,1470.00
2023-04-21T07:17:35.727Z,1478.00
2023-04-21T07:18:35.753Z,1521.00
2023-04-21T07:19:35.787Z,1502.00
2023-04-21T07:20:35.833Z,1477.00
2023-04-21T07:21:35.933Z,1451.00
2023-04-21T07:22:35.962Z,1406.00
2023-04-21T07:23:36.018Z,1416.00
2023-04-21T07:24:36.059Z,1432.00
2023-04-21T07:25:36.153Z,1410.00
2023-04-21T07:26:36.174Z,1297.00
2023-04-21T07:27:36.253Z,1323.00
2023-04-21T07:28:36.296Z,1314.00
2023-04-21T07:29:36.349Z,1331.00
2023-04-21T07:30:36.405Z,1325.00
2023-04-21T07:31:36.640Z,1334.00
2023-04-21T07:32:36.573Z,1333.00
2023-04-21T07:33:36.648Z,1341.00
2023-04-21T07:34:36.612Z,1342.00
2023-04-21T07:35:36.664Z,1364.00
2023-04-21T07:36:36.742Z,1347.00
2023-04-21T07:37:36.755Z,1345.00
2023-04-21T07:38:37.563Z,1350.00
2023-04-21T07:39:36.856Z,1281.00
2023-04-21T07:40:36.916Z,1317.00
2023-04-21T07:41:36.967Z,1351.00
2023-04-21T07:42:37.004Z,1329.00
2023-04-21T07:43:37.046Z,1353.00
2023-04-21T07:44:37.101Z,1375.00
2023-04-21T07:45:37.148Z,1365.00
2023-04-21T07:46:37.302Z,1382.00
2023-04-21T07:47:37.253Z,1395.00
2023-04-21T07:48:37.283Z,1396.00
2023-04-21T07:49:37.330Z,1394.00
2023-04-21T07:50:37.366Z,1420.00
2023-04-21T07:51:37.416Z,1433.00
2023-04-21T07:52:37.452Z,1421.00
2023-04-21T07:53:37.483Z,1411.00
2023-04-21T07:54:37.518Z,1424.00
2023-04-21T07:55:37.559Z,1418.00
2023-04-21T07:56:37.588Z,1432.00
2023-04-21T07:57:37.649Z,1438.00
2023-04-21T07:58:37.662Z,1438.00
2023-04-21T07:59:37.710Z,1440.00
2023-04-21T08:00:37.732Z,1452.00
2023-04-21T08:01:37.768Z,1464.00
2023-04-21T08:02:37.976Z,1474.00
2023-04-21T08:03:37.975Z,1475.00
2023-04-21T08:04:38.192Z,1486.00
2023-04-21T08:05:41.171Z,1486.00
2023-04-21T08:06:38.002Z,1501.00
2023-04-21T08:07:37.898Z,1487.00
2023-04-21T08:08:37.877Z,1480.00
2023-04-21T08:09:37.864Z,1487.00
2023-04-21T08:10:37.849Z,1499.00
2023-04-21T08:11:38.146Z,1484.00
2023-04-21T08:12:37.832Z,1491.00
2023-04-21T08:13:37.798Z,1489.00
2023-04-21T08:14:37.806Z,1500.00
2023-04-21T08:15:37.778Z,1488.00
2023-04-21T08:16:37.780Z,1451.00
2023-04-21T08:17:37.986Z,1453.00
2023-04-21T08:18:37.723Z,1488.00
2023-04-21T08:19:38.656Z,1500.00
2023-04-21T08:20:37.715Z,1497.00
2023-04-21T08:21:37.733Z,1485.00
2023-04-21T08:22:37.788Z,1485.00
2023-04-21T08:23:37.679Z,1482.00
2023-04-21T08:24:37.700Z,1485.00
2023-04-21T08:25:37.647Z,1481.00
2023-04-21T08:26:40.176Z,1481.00
2023-04-21T08:27:37.775Z,1493.00
2023-04-21T08:28:37.857Z,1493.00
2023-04-21T08:29:38.027Z,1492.00
2023-04-21T08:30:37.856Z,1487.00
2023-04-21T08:31:37.928Z,1459.00
2023-04-21T08:32:38.002Z,1463.00
2023-04-21T08:33:46.770Z,1460.00
2023-04-21T08:34:38.939Z,1460.00
2023-04-21T08:35:39.588Z,1462.00
2023-04-21T08:36:38.919Z,1460.00
2023-04-21T08:37:37.956Z,1446.00
2023-04-21T08:38:37.903Z,1450.00
2023-04-21T08:39:37.900Z,1443.00
2023-04-21T08:40:38.870Z,1460.00
2023-04-21T08:41:37.876Z,1431.00
2023-04-21T08:42:37.850Z,1421.00
2023-04-21T08:43:37.832Z,1410.00
2023-04-21T08:44:37.828Z,1419.00
2023-04-21T08:45:37.839Z,1450.00
2023-04-21T08:46:37.797Z,1441.00
2023-04-21T08:47:37.871Z,1425.00
2023-04-21T08:48:37.768Z,1445.00
2023-04-21T08:49:37.748Z,1461.00
2023-04-21T08:50:37.738Z,1489.00
2023-04-21T08:51:37.708Z,1490.00
2023-04-21T08:52:37.701Z,1486.00
2023-04-21T08:53:37.689Z,1493.00
2023-04-21T08:54:38.658Z,1490.00
2023-04-21T08:55:37.689Z,1513.00
2023-04-21T08:56:37.711Z,1518.00
2023-04-21T08:57:37.763Z,1500.00
2023-04-21T08:58:37.771Z,1492.00
2023-04-21T08:59:37.787Z,1512.00
2023-04-21T09:00:37.820Z,1489.00
2023-04-21T09:01:37.952Z,1474.00
2023-04-21T09:02:37.973Z,1489.00
2023-04-21T09:03:37.994Z,1494.00
2023-04-21T09:04:38.175Z,1490.00
2023-04-21T09:05:42.845Z,1498.00
2023-04-21T09:06:39.001Z,1499.00
2023-04-21T09:07:37.886Z,1503.00
2023-04-21T09:08:38.672Z,1511.00
2023-04-21T09:09:37.871Z,1533.00
2023-04-21T09:10:37.854Z,1565.00
2023-04-21T09:11:37.905Z,1564.00
2023-04-21T09:12:37.837Z,1564.00
2023-04-21T09:13:37.830Z,1550.00
2023-04-21T09:14:37.789Z,1544.00
2023-04-21T09:15:37.785Z,1538.00
2023-04-21T09:16:37.794Z,1533.00
2023-04-21T09:17:37.906Z,1413.00
2023-04-21T09:18:37.736Z,1476.00
2023-04-21T09:19:37.725Z,1512.00
2023-04-21T09:20:37.711Z,1525.00
2023-04-21T09:21:37.692Z,1495.00
2023-04-21T09:22:37.736Z,1507.00
2023-04-21T09:23:37.668Z,1520.00
2023-04-21T09:24:37.672Z,1510.00
2023-04-21T09:25:37.646Z,1538.00
2023-04-21T09:26:37.644Z,1561.00
2023-04-21T09:27:37.671Z,1548.00
2023-04-21T09:28:37.700Z,1539.00
2023-04-21T09:29:37.834Z,1541.00
2023-04-21T09:30:37.809Z,1536.00
2023-04-21T09:31:37.900Z,1550.00
2023-04-21T09:32:37.877Z,1535.00
2023-04-21T09:33:45.998Z,1541.00
2023-04-21T09:34:38.834Z,1543.00
2023-04-21T09:35:37.839Z,1545.00
2023-04-21T09:36:37.820Z,1545.00
2023-04-21T09:37:37.817Z,1554.00
2023-04-21T09:38:37.806Z,1557.00
2023-04-21T09:39:49.713Z,1558.00
2023-04-21T09:40:38.802Z,1559.00
2023-04-21T09:41:37.794Z,1560.00
2023-04-21T09:42:40.082Z,1563.00
2023-04-21T09:43:37.774Z,1568.00
2023-04-21T09:44:50.386Z,1570.00
2023-04-21T09:45:40.495Z,1560.00
2023-04-21T09:46:38.165Z,1566.00
2023-04-21T09:47:37.785Z,1572.00
2023-04-21T09:48:38.607Z,1571.00
2023-04-21T09:49:37.692Z,1575.00
2023-04-21T09:52:38.653Z,1567.00
2023-04-21T09:53:37.643Z,1569.00
2023-04-21T09:54:37.625Z,1570.00
2023-04-21T09:55:37.619Z,1578.00
2023-04-21T09:56:37.589Z,1571.00
2023-04-21T09:57:37.581Z,1579.00
2023-04-21T09:58:37.571Z,1573.00
2023-04-21T09:59:37.619Z,1566.00
2023-04-21T10:00:37.553Z,1559.00
2023-04-21T10:01:37.609Z,1559.00
2023-04-21T10:02:37.629Z,1553.00
2023-04-21T10:03:37.731Z,1557.00
2023-04-21T10:04:38.003Z,1547.00
2023-04-21T10:05:39.441Z,1544.00
2023-04-21T10:06:37.490Z,1544.00
2023-04-21T10:07:37.478Z,1545.00
2023-04-21T10:08:37.465Z,1546.00
2023-04-21T10:09:37.450Z,1541.00
2023-04-21T10:10:37.511Z,1543.00
2023-04-21T10:11:37.434Z,1529.00
2023-04-21T10:12:37.428Z,1531.00
2023-04-21T10:13:37.423Z,1520.00
2023-04-21T10:14:37.398Z,1464.00
2023-04-21T10:15:37.406Z,1073.00
2023-04-21T10:16:37.497Z,705.00
2023-04-21T10:17:37.422Z,891.00
2023-04-21T10:18:38.364Z,894.00
2023-04-21T10:19:37.343Z,904.00
2023-04-21T10:20:37.332Z,943.00
2023-04-21T10:21:37.328Z,967.00
2023-04-21T10:22:37.331Z,925.00
2023-04-21T10:23:37.321Z,911.00
2023-04-21T10:24:37.303Z,815.00
2023-04-21T10:25:38.117Z,782.00
2023-04-21T10:26:37.286Z,767.00
2023-04-21T10:27:37.288Z,727.00
2023-04-21T10:28:37.273Z,616.00
2023-04-21T10:29:48.462Z,605.00
2023-04-21T10:30:38.261Z,605.00
2023-04-21T10:31:37.296Z,567.00
2023-04-21T10:32:37.302Z,560.00
2023-04-21T10:33:37.258Z,532.00
2023-04-21T10:34:37.253Z,529.00
2023-04-21T10:35:37.246Z,472.00
2023-04-21T10:36:37.238Z,502.00
2023-04-21T10:37:37.218Z,504.00
2023-04-21T10:38:37.229Z,504.00
2023-04-21T10:39:37.206Z,501.00
2023-04-21T10:40:44.142Z,529.00
2023-04-21T10:41:38.207Z,522.00
2023-04-21T10:42:37.352Z,520.00
2023-04-21T10:43:37.175Z,500.00
2023-04-21T10:44:37.160Z,497.00
2023-04-21T10:45:37.154Z,498.00
2023-04-21T10:46:37.256Z,500.00
2023-04-21T10:47:37.218Z,491.00
2023-04-21T10:48:37.133Z,495.00
2023-04-21T10:49:37.124Z,512.00
2023-04-21T10:50:39.051Z,514.00
2023-04-21T10:51:37.211Z,474.00
2023-04-21T10:52:37.238Z,524.00
2023-04-21T10:53:37.269Z,531.00
2023-04-21T10:54:37.303Z,503.00
2023-04-21T10:55:37.328Z,516.00
2023-04-21T10:56:38.804Z,511.00
2023-04-21T10:57:37.384Z,501.00
2023-04-21T10:58:37.410Z,500.00
2023-04-21T10:59:37.419Z,400.00
2023-04-21T11:00:37.451Z,400.00
2023-04-21T11:01:37.497Z,431.00
2023-04-21T11:02:40.377Z,464.00
2023-04-21T11:03:37.616Z,464.00
2023-04-21T11:04:37.730Z,475.00
2023-04-21T11:05:37.443Z,512.00
2023-04-21T11:06:37.428Z,583.00
2023-04-21T11:07:37.407Z,648.00
2023-04-21T11:08:38.241Z,664.00
2023-04-21T11:09:37.393Z,699.00
2023-04-21T11:10:37.395Z,725.00
2023-04-21T11:11:37.373Z,745.00
2023-04-21T11:12:37.348Z,779.00
2023-04-21T11:13:37.337Z,779.00
2023-04-21T11:14:37.316Z,805.00
2023-04-21T11:15:37.307Z,808.00
2023-04-21T11:16:37.352Z,804.00
2023-04-21T11:17:37.316Z,815.00
2023-04-21T11:18:37.293Z,834.00
2023-04-21T11:19:37.287Z,841.00
2023-04-21T11:20:37.281Z,848.00
2023-04-21T11:21:37.280Z,873.00
2023-04-21T11:22:37.274Z,876.00
2023-04-21T11:23:37.266Z,887.00
2023-04-21T11:24:37.263Z,944.00
2023-04-21T11:25:37.250Z,951.00
2023-04-21T11:26:37.228Z,983.00
2023-04-21T11:27:37.221Z,984.00
2023-04-21T11:28:37.199Z,965.00
2023-04-21T11:29:37.186Z,978.00
2023-04-21T11:30:37.250Z,978.00
2023-04-21T11:31:37.304Z,1007.00
2023-04-21T11:32:38.461Z,1013.00
2023-04-21T11:33:37.153Z,1024.00
2023-04-21T11:34:37.146Z,1053.00
2023-04-21T11:35:37.147Z,1043.00
2023-04-21T11:36:37.167Z,1068.00
2023-04-21T11:37:37.194Z,1092.00
2023-04-21T11:38:37.234Z,1110.00
2023-04-21T11:39:37.258Z,1144.00
2023-04-21T11:40:37.292Z,1149.00
2023-04-21T11:41:37.346Z,1146.00
2023-04-21T11:42:37.360Z,1168.00
2023-04-21T11:43:37.389Z,1186.00
2023-04-21T11:44:37.436Z,1192.00
2023-04-21T11:45:37.459Z,1217.00
2023-04-21T11:46:37.491Z,1221.00
2023-04-21T11:47:37.536Z,1241.00
2023-04-21T11:48:37.547Z,1252.00
2023-04-21T11:49:37.574Z,1244.00
2023-04-21T11:50:37.602Z,1266.00
2023-04-21T11:51:37.637Z,1277.00
2023-04-21T11:52:37.809Z,1284.00
2023-04-21T11:53:37.693Z,1298.00
2023-04-21T11:54:37.760Z,1302.00
2023-04-21T11:55:37.753Z,1321.00
2023-04-21T11:56:37.795Z,1324.00
2023-04-21T11:57:37.844Z,1333.00
2023-04-21T11:58:37.872Z,1351.00
2023-04-21T11:59:37.911Z,1331.00
2023-04-21T12:00:37.938Z,1328.00
2023-04-21T12:01:37.982Z,1345.00
2023-04-21T12:02:38.189Z,1350.00
2023-04-21T12:03:38.277Z,1363.00
2023-04-21T12:04:38.163Z,1366.00
2023-04-21T12:05:38.204Z,1379.00
2023-04-21T12:06:38.169Z,1372.00
2023-04-21T12:07:38.224Z,1379.00
2023-04-21T12:08:38.244Z,1381.00
2023-04-21T12:09:38.321Z,1396.00
2023-04-21T12:10:38.316Z,1401.00
2023-04-21T12:11:38.360Z,1410.00
2023-04-21T12:12:38.388Z,1409.00
2023-04-21T12:13:38.424Z,1411.00
2023-04-21T12:14:38.465Z,1412.00
2023-04-21T12:15:38.513Z,1407.00
2023-04-21T12:16:38.591Z,1359.00
2023-04-21T12:17:38.640Z,1350.00
2023-04-21T12:18:38.609Z,1348.00
2023-04-21T12:19:38.657Z,1251.00
2023-04-21T12:20:38.677Z,1180.00